createdAt,value
2023-01-25T00:04:37.868Z,19.80
2023-01-25T00:09:39.265Z,19.70
2023-01-25T00:14:40.671Z,19.80
2023-01-25T00:19:42.101Z,19.80
2023-01-25T00:24:43.507Z,19.80
2023-01-25T00:29:45.032Z,19.90
2023-01-25T00:34:46.451Z,20.00
2023-01-25T00:39:47.902Z,20.00
2023-01-25T00:44:49.295Z,20.10
2023-01-25T00:49:50.707Z,20.10
2023-01-25T00:54:52.135Z,20.00
2023-01-25T00:59:53.571Z,20.00
2023-01-25T01:04:55.015Z,20.00
2023-01-25T01:09:56.473Z,20.00
2023-01-25T01:14:57.922Z,19.90
2023-01-25T01:19:59.341Z,19.90
2023-01-25T01:25:00.743Z,19.90
2023-01-25T01:30:02.166Z,19.80
2023-01-25T01:35:03.573Z,19.80
2023-01-25T01:40:04.985Z,19.90
2023-01-25T01:45:06.708Z,19.90
2023-01-25T01:50:08.303Z,19.80
2023-01-25T01:55:10.056Z,19.80
2023-01-25T02:00:11.684Z,19.80
2023-01-25T02:05:13.100Z,19.80
2023-01-25T02:10:14.494Z,19.70
2023-01-25T02:15:15.932Z,19.70
2023-01-25T02:20:17.360Z,19.80
2023-01-25T02:25:18.769Z,19.80
2023-01-25T02:30:20.172Z,19.80
2023-01-25T02:35:21.599Z,19.80
2023-01-25T02:40:23.038Z,19.90
2023-01-25T02:45:24.453Z,19.90
2023-01-25T02:50:25.844Z,20.00
2023-01-25T02:55:27.255Z,20.00
2023-01-25T03:00:28.682Z,20.00
2023-01-25T03:05:30.090Z,20.00
2023-01-25T03:10:31.513Z,20.00
2023-01-25T03:15:32.991Z,19.90
2023-01-25T03:20:34.412Z,19.90
2023-01-25T03:25:35.832Z,19.90
2023-01-25T03:30:37.256Z,19.90
2023-01-25T03:35:38.671Z,19.90
2023-01-25T03:40:40.067Z,19.90
2023-01-25T03:45:41.498Z,19.80
2023-01-25T03:50:42.941Z,19.80
2023-01-25T03:55:44.432Z,19.80
2023-01-25T04:00:45.869Z,19.80
2023-01-25T04:05:47.292Z,19.80
2023-01-25T04:10:48.689Z,19.80
2023-01-25T04:15:50.108Z,19.80
2023-01-25T04:20:51.549Z,19.80
2023-01-25T04:25:52.975Z,19.80
2023-01-25T04:30:54.387Z,19.70
2023-01-25T04:35:55.797Z,19.70
2023-01-25T04:40:57.199Z,19.70
2023-01-25T04:45:58.628Z,19.80
2023-01-25T04:51:00.050Z,19.90
2023-01-25T04:56:01.486Z,20.00
2023-01-25T05:01:02.959Z,20.00
2023-01-25T05:06:04.401Z,20.10
2023-01-25T05:11:05.825Z,20.10
2023-01-25T05:16:08.962Z,20.10
2023-01-25T05:21:10.509Z,20.10
2023-01-25T05:26:11.918Z,20.10
2023-01-25T05:31:13.351Z,20.00
2023-01-25T05:36:14.799Z,20.00
2023-01-25T05:41:16.206Z,19.90
2023-01-25T05:46:17.674Z,19.90
2023-01-25T05:51:19.114Z,19.90
2023-01-25T05:56:20.605Z,19.90
2023-01-25T06:01:22.074Z,19.90
2023-01-25T06:06:23.647Z,19.90
2023-01-25T06:11:25.099Z,19.80
2023-01-25T06:16:26.522Z,19.80
2023-01-25T06:21:27.925Z,19.80
2023-01-25T06:26:29.336Z,19.80
2023-01-25T06:31:30.799Z,19.80
2023-01-25T06:36:32.245Z,19.70
2023-01-25T06:41:34.829Z,19.80
2023-01-25T06:46:36.261Z,19.70
2023-01-25T06:51:37.687Z,19.70
2023-01-25T06:56:39.096Z,19.70
2023-01-25T07:01:40.663Z,19.80
2023-01-25T07:06:42.097Z,19.80
2023-01-25T07:11:43.524Z,19.90
2023-01-25T07:16:44.932Z,19.90
2023-01-25T07:21:46.337Z,19.90
2023-01-25T07:26:47.775Z,19.90
2023-01-25T07:31:49.255Z,19.90
2023-01-25T07:36:50.774Z,19.90
2023-01-25T07:41:52.195Z,19.90
2023-01-25T07:46:53.603Z,19.80
2023-01-25T07:51:55.017Z,19.90
2023-01-25T07:56:56.441Z,19.80
2023-01-25T08:01:58.001Z,19.80
2023-01-25T08:06:59.409Z,19.80
2023-01-25T08:12:00.809Z,19.80
2023-01-25T08:17:02.203Z,19.80
2023-01-25T08:22:03.600Z,19.80
2023-01-25T08:27:05.048Z,19.80
2023-01-25T08:32:06.517Z,19.80
2023-01-25T08:37:07.985Z,20.00
2023-01-25T08:42:09.433Z,20.20
2023-01-25T08:47:10.851Z,20.60
2023-01-25T08:52:12.261Z,20.90
2023-01-25T08:57:13.667Z,21.40
2023-01-25T09:02:15.119Z,21.90
2023-01-25T09:07:16.564Z,22.30
2023-01-25T09:12:17.975Z,22.70
2023-01-25T09:17:19.408Z,23.10
2023-01-25T09:22:20.875Z,23.50
2023-01-25T09:27:22.295Z,23.70
2023-01-25T09:32:23.850Z,23.80
2023-01-25T09:37:25.651Z,23.90
2023-01-25T09:42:27.084Z,23.90
2023-01-25T09:47:28.548Z,23.80
2023-01-25T09:52:29.968Z,23.80
2023-01-25T09:57:31.369Z,23.90
2023-01-25T10:02:32.848Z,23.90
2023-01-25T10:07:34.348Z,24.10
2023-01-25T10:12:35.758Z,24.10
2023-01-25T10:17:37.198Z,24.10
2023-01-25T10:22:38.617Z,24.10
2023-01-25T10:27:40.016Z,24.00
2023-01-25T10:32:51.057Z,23.90
2023-01-25T10:37:57.037Z,23.90
2023-01-25T10:42:58.440Z,23.90
2023-01-25T10:47:59.846Z,24.00
2023-01-25T10:53:01.249Z,24.10
2023-01-25T10:58:02.658Z,24.10
2023-01-25T11:03:04.156Z,24.10
2023-01-25T11:08:05.620Z,24.10
2023-01-25T11:13:07.067Z,24.00
2023-01-25T11:18:08.484Z,24.00
2023-01-25T11:23:09.881Z,24.00
2023-01-25T11:28:11.330Z,24.10
2023-01-25T11:33:12.899Z,24.30
2023-01-25T11:38:14.343Z,24.60
2023-01-25T11:43:15.774Z,24.90
2023-01-25T11:48:17.174Z,25.20
2023-01-25T11:53:18.568Z,25.40
2023-01-25T11:58:19.963Z,25.70
2023-01-25T12:03:21.422Z,25.80
2023-01-25T12:08:22.829Z,26.00
2023-01-25T12:13:24.310Z,25.80
2023-01-25T12:18:25.749Z,25.40
2023-01-25T12:23:27.161Z,24.90
2023-01-25T12:28:28.694Z,24.40
2023-01-25T12:33:31.527Z,24.00
2023-01-25T12:38:33.058Z,23.90
2023-01-25T12:43:34.495Z,24.00
2023-01-25T12:48:35.914Z,24.20
2023-01-25T12:53:37.311Z,24.40
2023-01-25T12:58:38.844Z,24.70
2023-01-25T13:03:40.251Z,25.00
2023-01-25T13:08:41.692Z,25.20
2023-01-25T13:13:43.183Z,25.50
2023-01-25T13:18:44.727Z,25.70
2023-01-25T13:23:46.166Z,25.90
2023-01-25T13:28:50.694Z,26.20
2023-01-25T13:33:52.102Z,26.40
2023-01-25T13:38:53.529Z,26.50
2023-01-25T13:43:54.938Z,26.70
2023-01-25T13:48:56.393Z,26.80
2023-01-25T13:53:57.824Z,27.00
2023-01-25T13:58:59.236Z,27.10
2023-01-25T14:04:00.647Z,27.20
2023-01-25T14:09:02.051Z,27.30
2023-01-25T14:14:03.467Z,27.40
2023-01-25T14:19:04.918Z,27.50
2023-01-25T14:24:06.384Z,27.60
2023-01-25T14:29:11.543Z,27.60
2023-01-25T14:34:15.637Z,27.70
2023-01-25T14:39:17.062Z,27.70
2023-01-25T14:44:18.477Z,27.80
2023-01-25T14:49:19.880Z,27.80
2023-01-25T14:54:21.304Z,27.90
2023-01-25T14:59:22.730Z,27.90
2023-01-25T15:04:24.136Z,28.00
2023-01-25T15:09:25.536Z,28.00
2023-01-25T15:14:26.963Z,28.10
2023-01-25T15:19:28.371Z,28.10
2023-01-25T15:24:29.778Z,28.10
2023-01-25T15:29:31.224Z,28.20
2023-01-25T15:34:32.622Z,28.20
2023-01-25T15:39:34.027Z,28.30
2023-01-25T15:44:35.446Z,28.30
2023-01-25T15:49:36.864Z,28.30
2023-01-25T15:54:39.552Z,28.30
2023-01-25T15:59:42.277Z,28.40
2023-01-25T16:04:43.705Z,28.40
2023-01-25T16:09:45.109Z,28.50
2023-01-25T16:14:46.517Z,28.50
2023-01-25T16:19:47.952Z,28.60
2023-01-25T16:24:49.360Z,28.60
2023-01-25T16:29:50.760Z,28.60
2023-01-25T16:34:52.169Z,28.60
2023-01-25T16:39:53.589Z,28.60
2023-01-25T16:44:54.998Z,28.60
2023-01-25T16:49:56.444Z,28.60
2023-01-25T16:54:57.995Z,28.50
2023-01-25T17:00:00.985Z,28.50
2023-01-25T17:05:03.773Z,28.30
2023-01-25T17:10:05.186Z,28.20
2023-01-25T17:15:06.587Z,28.00
2023-01-25T17:20:08.208Z,27.80
2023-01-25T17:25:09.698Z,27.50
2023-01-25T17:30:11.500Z,27.20
2023-01-25T17:35:13.033Z,26.90
2023-01-25T17:40:14.434Z,26.60
2023-01-25T17:45:15.882Z,26.30
2023-01-25T17:50:17.384Z,26.10
2023-01-25T17:55:18.869Z,26.10
2023-01-25T18:00:20.278Z,26.10
2023-01-25T18:05:21.683Z,26.10
2023-01-25T18:10:23.090Z,26.10
2023-01-25T18:15:24.501Z,26.00
2023-01-25T18:20:25.904Z,26.00
2023-01-25T18:25:27.317Z,25.90
2023-01-25T18:30:28.754Z,25.80
2023-01-25T18:35:30.160Z,25.70
2023-01-25T18:40:31.560Z,25.50
2023-01-25T18:45:33.032Z,25.30
2023-01-25T18:50:34.445Z,25.10
2023-01-25T18:55:35.846Z,24.90
2023-01-25T19:00:37.261Z,24.70
2023-01-25T19:05:38.668Z,24.50
2023-01-25T19:10:40.073Z,24.50
2023-01-25T19:15:41.494Z,24.50
2023-01-25T19:20:42.936Z,24.70
2023-01-25T19:25:45.156Z,24.80
2023-01-25T19:30:46.578Z,25.00
2023-01-25T19:35:47.981Z,25.00
2023-01-25T19:40:49.388Z,25.10
2023-01-25T19:45:50.791Z,25.10
2023-01-25T19:50:52.245Z,25.10
2023-01-25T19:55:53.780Z,25.00
2023-01-25T20:00:55.223Z,24.80
2023-01-25T20:05:56.639Z,24.70
2023-01-25T20:10:58.050Z,24.60
2023-01-25T20:15:59.482Z,24.50
2023-01-25T20:21:00.913Z,24.30
2023-01-25T20:26:02.336Z,24.20
2023-01-25T20:31:04.047Z,24.10
2023-01-25T20:36:05.679Z,24.10
2023-01-25T20:41:07.116Z,24.10
2023-01-25T20:46:08.554Z,24.20
2023-01-25T20:51:09.993Z,24.40
2023-01-25T20:56:11.420Z,24.40
2023-01-25T21:01:12.946Z,24.50
2023-01-25T21:06:14.381Z,24.60
2023-01-25T21:11:15.801Z,24.60
2023-01-25T21:16:17.259Z,24.60
2023-01-25T21:21:18.803Z,24.60
2023-01-25T21:26:20.262Z,24.50
2023-01-25T21:31:21.935Z,24.40
2023-01-25T21:36:23.377Z,24.30
2023-01-25T21:41:24.838Z,24.20
2023-01-25T21:46:26.278Z,24.10
2023-01-25T21:51:27.691Z,24.10
2023-01-25T21:56:29.254Z,24.10
2023-01-25T22:01:30.720Z,24.00
2023-01-25T22:06:32.195Z,24.00
2023-01-25T22:11:33.665Z,24.10
2023-01-25T22:16:35.242Z,24.20
2023-01-25T22:21:36.664Z,24.20
2023-01-25T22:26:38.068Z,24.30
2023-01-25T22:31:39.932Z,24.30
2023-01-25T22:36:41.427Z,24.30
2023-01-25T22:41:42.873Z,24.20
2023-01-25T22:46:44.315Z,24.10
2023-01-25T22:51:45.785Z,24.10
2023-01-25T22:56:47.301Z,24.10
2023-01-25T23:01:48.708Z,24.10
2023-01-25T23:06:50.120Z,24.20
2023-01-25T23:11:51.564Z,24.20
2023-01-25T23:16:53.000Z,24.30
2023-01-25T23:21:54.404Z,24.20
2023-01-25T23:26:55.807Z,24.10
2023-01-25T23:31:57.320Z,24.10
2023-01-25T23:36:58.810Z,24.10
2023-01-25T23:42:00.241Z,24.10
2023-01-25T23:47:01.749Z,24.10
2023-01-25T23:52:03.270Z,24.10
2023-01-25T23:57:04.681Z,24.10
